Time;durP1;ratioP1;P1;durP2;ratioP2;P2;SDS_P1;SDS_P2;PMS_P1;PMS_P2;Temp;Humidity;BMP_temperature;BMP_pressure;BME280_temperature;BME280_humidity;BME280_pressure;Samples;Min_cycle;Max_cycle;Signal;HPM_P1;HPM_P2
2023/12/01 00:02:04;;;;;;;;;;;0.40;99.90;;;;;;4967876;28;20378;-70
2023/12/01 00:04:30;;;;;;;;;;;0.50;99.90;;;;;;4979450;28;19925;-70
2023/12/01 00:06:56;;;;;;;;;;;0.50;99.90;;;;;;4965233;28;20040;-69
2023/12/01 00:09:21;;;;;;;;;;;0.40;99.90;;;;;;4987871;28;19925;-69
2023/12/01 00:11:47;;;;;;;;;;;0.40;99.90;;;;;;4964367;28;19932;-70
2023/12/01 00:14:13;;;;;;;;;;;0.40;99.90;;;;;;4981502;28;19948;-69
2023/12/01 00:16:39;;;;;;;;;;;0.40;99.90;;;;;;4961884;28;19993;-70
2023/12/01 00:19:05;;;;;;;;;;;0.40;99.90;;;;;;4983869;28;20794;-70
2023/12/01 00:21:31;;;;;;;;;;;0.40;99.90;;;;;;4952091;28;19928;-69
2023/12/01 00:23:57;;;;;;;;;;;0.40;99.90;;;;;;4979311;28;19955;-70
2023/12/01 00:26:23;;;;;;;;;;;0.40;99.90;;;;;;4974165;28;19958;-69
2023/12/01 00:28:49;;;;;;;;;;;0.40;99.90;;;;;;4985509;28;19951;-69
2023/12/01 00:31:15;;;;;;;;;;;0.30;99.90;;;;;;4957604;28;19940;-69
2023/12/01 00:33:41;;;;;;;;;;;0.30;99.90;;;;;;4988911;28;19980;-70
2023/12/01 00:36:07;;;;;;;;;;;0.30;99.90;;;;;;4955075;28;21129;-69
2023/12/01 00:38:34;;;;;;;;;;;0.20;99.90;;;;;;4977242;28;20680;-69
2023/12/01 00:41:00;;;;;;;;;;;0.20;99.90;;;;;;4952139;28;19958;-69
2023/12/01 00:43:26;;;;;;;;;;;0.20;99.90;;;;;;4996228;28;20320;-70
2023/12/01 00:45:52;;;;;;;;;;;0.20;99.90;;;;;;4950571;28;19928;-69
2023/12/01 00:48:18;;;;;;;;;;;0.10;99.90;;;;;;4997230;28;19925;-70
2023/12/01 00:50:44;;;;;;;;;;;0.20;99.90;;;;;;4951089;28;20518;-70
2023/12/01 00:53:09;;;;;;;;;;;0.20;99.90;;;;;;4987307;28;19925;-70
2023/12/01 00:55:35;;;;;;;;;;;0.20;99.90;;;;;;4974794;28;20222;-68
2023/12/01 00:58:02;;;;;;;;;;;0.20;99.90;;;;;;4938286;28;20410;-69
2023/12/01 01:00:28;;;;;;;;;;;0.20;99.90;;;;;;4965885;28;19925;-69
2023/12/01 01:02:54;;;;;;;;;;;0.20;99.90;;;;;;4922910;28;20622;-69
2023/12/01 01:05:20;;;;;;;;;;;0.20;99.90;;;;;;4969546;28;20398;-70
2023/12/01 01:07:46;;;;;;;;;;;0.10;99.90;;;;;;4958163;28;20059;-69
2023/12/01 01:10:11;;;;;;;;;;;0.10;99.90;;;;;;4999155;28;20135;-69
2023/12/01 01:12:37;;;;;;;;;;;0.10;99.90;;;;;;4953833;28;20979;-68
2023/12/01 01:15:04;;;;;;;;;;;0.00;99.90;;;;;;4968447;28;19926;-70
2023/12/01 01:17:31;;;;;;;;;;;-0.10;99.90;;;;;;4979186;28;19928;-70
2023/12/01 01:19:58;;;;;;;;;;;-0.20;99.90;;;;;;4991935;28;19935;-71
2023/12/01 01:22:25;;;;;;;;;;;-0.20;99.90;;;;;;4957905;28;19935;-70
2023/12/01 01:24:51;;;;;;;;;;;-0.20;99.90;;;;;;4965840;28;19932;-70
2023/12/01 01:27:17;;;;;;;;;;;-0.20;99.90;;;;;;4974111;28;21063;-69
2023/12/01 01:29:45;;;;;;;;;;;-0.20;99.90;;;;;;4985217;28;19932;-69
2023/12/01 01:32:11;;;;;;;;;;;-0.20;99.90;;;;;;4968987;28;19936;-70
2023/12/01 01:34:38;;;;;;;;;;;-0.20;99.90;;;;;;4983660;28;19925;-69
2023/12/01 01:37:04;;;;;;;;;;;-0.30;99.90;;;;;;4963268;28;19955;-69
2023/12/01 01:39:30;;;;;;;;;;;-0.30;99.90;;;;;;4988643;28;20483;-70
2023/12/01 01:41:56;;;;;;;;;;;-0.30;99.90;;;;;;4969494;28;20365;-69
2023/12/01 01:44:22;;;;;;;;;;;-0.30;99.90;;;;;;4990862;28;19929;-69
2023/12/01 01:46:51;;;;;;;;;;;-0.30;99.90;;;;;;4970832;28;20325;-70
2023/12/01 01:49:20;;;;;;;;;;;-0.30;99.90;;;;;;4996247;28;19925;-70
2023/12/01 01:51:52;;;;;;;;;;;-0.30;99.90;;;;;;4964230;28;19924;-69
2023/12/01 01:54:21;;;;;;;;;;;-0.30;99.90;;;;;;4990012;28;20298;-70
2023/12/01 01:56:48;;;;;;;;;;;-0.30;99.90;;;;;;4967701;28;19936;-70
2023/12/01 01:59:14;;;;;;;;;;;-0.30;99.90;;;;;;4986168;28;19952;-70
2023/12/01 02:01:45;;;;;;;;;;;-0.30;99.90;;;;;;4945705;28;19975;-69
2023/12/01 02:04:11;;;;;;;;;;;-0.30;99.90;;;;;;4969916;28;19929;-70
2023/12/01 02:06:39;;;;;;;;;;;-0.40;99.90;;;;;;4965746;28;19924;-70
2023/12/01 02:09:06;;;;;;;;;;;-0.40;99.90;;;;;;4997350;28;19925;-69
2023/12/01 02:11:33;;;;;;;;;;;-0.50;99.90;;;;;;4960556;28;20210;-70
2023/12/01 02:14:02;;;;;;;;;;;-0.40;99.90;;;;;;4953970;28;19926;-69
2023/12/01 02:16:28;;;;;;;;;;;-0.50;99.90;;;;;;4950369;28;20418;-69
2023/12/01 02:18:54;;;;;;;;;;;-0.50;99.90;;;;;;4995282;28;19925;-69
2023/12/01 02:21:22;;;;;;;;;;;-0.50;99.90;;;;;;4939864;28;19925;-70
2023/12/01 02:23:48;;;;;;;;;;;-0.50;99.90;;;;;;5006754;28;20528;-70
2023/12/01 02:26:14;;;;;;;;;;;-0.60;99.90;;;;;;4944134;28;19929;-70
2023/12/01 02:28:40;;;;;;;;;;;-0.70;99.90;;;;;;4987827;28;19932;-69
2023/12/01 02:31:06;;;;;;;;;;;-0.70;99.90;;;;;;4961150;28;19929;-68
2023/12/01 02:33:32;;;;;;;;;;;-0.80;99.90;;;;;;4984485;28;21073;-69
2023/12/01 02:35:59;;;;;;;;;;;-1.00;99.90;;;;;;4952001;28;19934;-67
2023/12/01 02:38:25;;;;;;;;;;;-1.00;99.90;;;;;;5002556;28;19933;-67
2023/12/01 02:40:51;;;;;;;;;;;-1.00;99.90;;;;;;4950763;28;19925;-67
2023/12/01 02:43:17;;;;;;;;;;;-0.90;99.90;;;;;;5013860;28;19955;-67
2023/12/01 02:45:43;;;;;;;;;;;-0.90;99.90;;;;;;4949849;28;19940;-68
2023/12/01 02:48:10;;;;;;;;;;;-0.90;99.90;;;;;;5010456;28;19930;-68
2023/12/01 02:50:36;;;;;;;;;;;-0.90;99.90;;;;;;4978344;28;19929;-67
2023/12/01 02:53:04;;;;;;;;;;;-0.90;99.90;;;;;;4958287;28;19931;-66
2023/12/01 02:55:30;;;;;;;;;;;-0.90;99.90;;;;;;4979122;28;19925;-67
2023/12/01 02:57:56;;;;;;;;;;;-0.90;99.90;;;;;;4972254;28;19933;-67
2023/12/01 03:00:22;;;;;;;;;;;-1.00;99.90;;;;;;4977693;28;19940;-66
2023/12/01 03:02:49;;;;;;;;;;;-1.10;99.90;;;;;;4940899;28;19928;-67
2023/12/01 03:05:15;;;;;;;;;;;-1.20;99.90;;;;;;4980925;28;19936;-67
2023/12/01 03:07:41;;;;;;;;;;;-1.20;99.90;;;;;;4955368;28;19932;-66
2023/12/01 03:10:10;;;;;;;;;;;-1.30;99.90;;;;;;4964153;28;20203;-67
2023/12/01 03:12:36;;;;;;;;;;;-1.30;99.90;;;;;;4949014;28;19941;-67
2023/12/01 03:15:04;;;;;;;;;;;-1.40;99.90;;;;;;4983077;28;19925;-67
2023/12/01 03:17:30;;;;;;;;;;;-1.40;99.90;;;;;;4955365;28;19940;-68
2023/12/01 03:19:57;;;;;;;;;;;-1.40;99.90;;;;;;4980711;28;20425;-66
2023/12/01 03:22:24;;;;;;;;;;;-1.40;99.90;;;;;;4962085;28;19925;-66
2023/12/01 03:24:50;;;;;;;;;;;-1.40;99.90;;;;;;4978315;28;20449;-67
2023/12/01 03:27:16;;;;;;;;;;;-1.40;99.90;;;;;;4935775;28;19932;-67
2023/12/01 03:29:42;;;;;;;;;;;-1.40;99.90;;;;;;4977574;28;19937;-67
2023/12/01 03:32:08;;;;;;;;;;;-1.40;99.90;;;;;;4963656;28;19964;-67
2023/12/01 03:34:34;;;;;;;;;;;-1.30;99.90;;;;;;4978594;28;19976;-68
2023/12/01 03:37:00;;;;;;;;;;;-1.40;99.90;;;;;;4965725;28;20438;-68
2023/12/01 03:39:26;;;;;;;;;;;-1.40;99.90;;;;;;4990475;28;20478;-67
2023/12/01 03:41:52;;;;;;;;;;;-1.40;99.90;;;;;;4955778;28;19925;-67
2023/12/01 03:44:18;;;;;;;;;;;-1.40;99.90;;;;;;4958031;28;19930;-67
2023/12/01 03:46:44;;;;;;;;;;;-1.40;99.90;;;;;;4959181;28;19941;-67
2023/12/01 03:49:10;;;;;;;;;;;-1.50;99.90;;;;;;5001268;28;19924;-66
2023/12/01 03:51:36;;;;;;;;;;;-1.50;99.90;;;;;;4967235;28;19928;-67
2023/12/01 03:54:02;;;;;;;;;;;-1.60;99.90;;;;;;4991892;28;19936;-67
2023/12/01 03:56:29;;;;;;;;;;;-1.70;99.90;;;;;;4972452;28;20015;-67
2023/12/01 03:58:55;;;;;;;;;;;-1.70;99.90;;;;;;4986392;28;20490;-67
2023/12/01 04:01:21;;;;;;;;;;;-1.80;99.90;;;;;;4978070;28;19924;-67
2023/12/01 04:03:47;;;;;;;;;;;-1.80;99.90;;;;;;4997336;28;19929;-68
2023/12/01 04:06:13;;;;;;;;;;;-1.90;99.90;;;;;;4955714;28;19936;-68
2023/12/01 04:08:39;;;;;;;;;;;-2.00;99.90;;;;;;4959015;28;20607;-68
2023/12/01 04:11:08;;;;;;;;;;;-2.10;99.90;;;;;;4934834;28;19931;-68
2023/12/01 04:13:34;;;;;;;;;;;-2.10;99.90;;;;;;4970841;28;19929;-68
2023/12/01 04:16:00;;;;;;;;;;;-2.20;99.90;;;;;;4935749;28;19930;-67
2023/12/01 04:18:27;;;;;;;;;;;-2.20;99.90;;;;;;4963873;28;19940;-68
2023/12/01 04:20:57;;;;;;;;;;;-2.30;99.90;;;;;;4952043;28;19941;-67
2023/12/01 04:23:23;;;;;;;;;;;-2.30;99.90;;;;;;5015579;28;19925;-68
2023/12/01 04:25:49;;;;;;;;;;;-2.40;99.90;;;;;;4957774;28;19941;-67
2023/12/01 04:28:15;;;;;;;;;;;-2.40;99.90;;;;;;5000983;28;19925;-67
2023/12/01 04:30:44;;;;;;;;;;;-2.40;99.90;;;;;;4964220;28;19964;-67
2023/12/01 04:33:10;;;;;;;;;;;-2.40;99.90;;;;;;4964937;28;19926;-67
2023/12/01 04:35:36;;;;;;;;;;;-2.50;99.90;;;;;;4939099;28;21124;-67
2023/12/01 04:38:03;;;;;;;;;;;-2.50;99.90;;;;;;4952415;28;19933;-67
2023/12/01 04:40:30;;;;;;;;;;;-2.50;99.90;;;;;;4956925;28;19926;-67
2023/12/01 04:42:56;;;;;;;;;;;-2.60;99.90;;;;;;4980822;28;21186;-67
2023/12/01 04:45:24;;;;;;;;;;;-2.60;99.90;;;;;;4986029;28;19925;-66
2023/12/01 04:47:51;;;;;;;;;;;-2.60;99.90;;;;;;4955101;28;19925;-66
2023/12/01 04:50:18;;;;;;;;;;;-2.70;99.90;;;;;;4991814;28;19925;-66
2023/12/01 04:52:44;;;;;;;;;;;-2.70;99.90;;;;;;4943967;28;19925;-67
2023/12/01 04:55:13;;;;;;;;;;;-2.70;99.90;;;;;;4959648;28;20475;-67
2023/12/01 04:57:39;;;;;;;;;;;-2.70;99.90;;;;;;4954054;28;19928;-67
2023/12/01 05:00:22;;;;;;;;;;;-2.80;99.90;;;;;;4958114;28;20399;-66
2023/12/01 05:02:58;;;;;;;;;;;-2.80;99.90;;;;;;4955410;28;19925;-66
2023/12/01 05:05:25;;;;;;;;;;;-2.80;99.90;;;;;;4957937;28;19925;-66
2023/12/01 05:07:51;;;;;;;;;;;-2.90;99.90;;;;;;4935293;28;19932;-66
2023/12/01 05:10:19;;;;;;;;;;;-2.90;99.90;;;;;;4961004;28;19926;-66
2023/12/01 05:12:49;;;;;;;;;;;-2.90;99.90;;;;;;4945767;28;21048;-66
2023/12/01 05:15:20;;;;;;;;;;;-3.00;99.90;;;;;;4964097;28;21153;-68
2023/12/01 05:17:47;;;;;;;;;;;-3.00;99.90;;;;;;4938824;28;19933;-67
2023/12/01 05:20:16;;;;;;;;;;;-3.00;99.90;;;;;;4955585;28;19926;-67
2023/12/01 05:22:43;;;;;;;;;;;-3.10;99.90;;;;;;4989676;28;19934;-67
2023/12/01 05:25:15;;;;;;;;;;;-3.10;99.90;;;;;;5021939;28;20421;-67
2023/12/01 05:27:42;;;;;;;;;;;-3.10;99.90;;;;;;4974670;28;20415;-67
2023/12/01 05:30:08;;;;;;;;;;;-3.10;99.90;;;;;;5011891;28;19931;-67
2023/12/01 05:32:33;;;;;;;;;;;-3.10;99.90;;;;;;4982150;28;19931;-66
2023/12/01 05:34:59;;;;;;;;;;;-3.20;99.90;;;;;;4989953;28;20021;-67
2023/12/01 05:37:25;;;;;;;;;;;-3.20;99.90;;;;;;4951213;28;20392;-67
2023/12/01 05:39:51;;;;;;;;;;;-3.30;99.90;;;;;;4961851;28;20010;-66
2023/12/01 05:42:17;;;;;;;;;;;-3.30;99.90;;;;;;4929392;28;20765;-66
2023/12/01 05:44:43;;;;;;;;;;;-3.30;99.90;;;;;;4961179;28;19944;-67
2023/12/01 05:47:09;;;;;;;;;;;-3.30;99.90;;;;;;4971789;28;19936;-66
2023/12/01 05:49:35;;;;;;;;;;;-3.40;99.90;;;;;;4992468;28;20888;-67
2023/12/01 05:52:01;;;;;;;;;;;-3.40;99.90;;;;;;4948394;28;19932;-68
2023/12/01 05:54:27;;;;;;;;;;;-3.40;99.90;;;;;;4961826;28;19925;-67
2023/12/01 05:56:55;;;;;;;;;;;-3.50;99.90;;;;;;4957978;28;19932;-67
2023/12/01 05:59:21;;;;;;;;;;;-3.50;99.90;;;;;;4981783;28;19925;-66
2023/12/01 06:01:47;;;;;;;;;;;-3.50;99.90;;;;;;4976258;28;19992;-67
2023/12/01 06:04:13;;;;;;;;;;;-3.50;99.90;;;;;;5003962;28;19925;-67
2023/12/01 06:06:39;;;;;;;;;;;-3.50;99.90;;;;;;4948374;28;19925;-67
2023/12/01 06:09:07;;;;;;;;;;;-3.60;99.90;;;;;;4993812;28;19932;-66
2023/12/01 06:11:33;;;;;;;;;;;-3.50;99.90;;;;;;4965222;28;19931;-66
2023/12/01 06:14:00;;;;;;;;;;;-3.50;99.90;;;;;;4996114;28;19925;-66
2023/12/01 06:16:26;;;;;;;;;;;-3.50;99.90;;;;;;4957110;28;19936;-66
2023/12/01 06:18:52;;;;;;;;;;;-3.50;99.90;;;;;;4984095;28;19929;-67
2023/12/01 06:21:18;;;;;;;;;;;-3.50;99.90;;;;;;4958425;28;19925;-67
2023/12/01 06:23:44;;;;;;;;;;;-3.50;99.90;;;;;;4994362;28;19929;-67
2023/12/01 06:26:10;;;;;;;;;;;-3.50;99.90;;;;;;4957497;28;20043;-67
2023/12/01 06:28:36;;;;;;;;;;;-3.50;99.90;;;;;;4998445;28;19929;-67
2023/12/01 06:31:02;;;;;;;;;;;-3.60;99.90;;;;;;4956579;28;19930;-67
2023/12/01 06:33:28;;;;;;;;;;;-3.60;99.90;;;;;;4981969;28;20976;-66
2023/12/01 06:35:54;;;;;;;;;;;-3.60;99.90;;;;;;4936583;28;20383;-67
2023/12/01 06:38:19;;;;;;;;;;;-3.60;99.90;;;;;;4999565;28;19940;-67
2023/12/01 06:40:45;;;;;;;;;;;-3.60;99.90;;;;;;4951467;28;19930;-67
2023/12/01 06:43:11;;;;;;;;;;;-3.60;99.90;;;;;;5000704;28;19925;-67
2023/12/01 06:45:38;;;;;;;;;;;-3.60;99.90;;;;;;4971988;28;20034;-67
2023/12/01 06:48:05;;;;;;;;;;;-3.70;99.90;;;;;;4947419;28;24039;-68
2023/12/01 06:50:31;;;;;;;;;;;-3.70;99.90;;;;;;4981332;28;21110;-68
2023/12/01 06:53:00;;;;;;;;;;;-3.70;99.90;;;;;;4973332;28;19939;-67
2023/12/01 06:55:26;;;;;;;;;;;-3.80;99.90;;;;;;4983883;28;19925;-68
2023/12/01 06:57:53;;;;;;;;;;;-3.80;99.90;;;;;;4975349;28;19999;-66
2023/12/01 07:00:29;;;;;;;;;;;-3.80;99.90;;;;;;4977942;28;20396;-66
2023/12/01 07:02:56;;;;;;;;;;;-3.80;99.90;;;;;;4955509;28;19958;-66
2023/12/01 07:05:22;;;;;;;;;;;-3.80;99.90;;;;;;4979888;28;19935;-67
2023/12/01 07:07:48;;;;;;;;;;;-3.90;99.90;;;;;;4984128;28;20799;-66
2023/12/01 07:10:15;;;;;;;;;;;-3.90;99.90;;;;;;4982271;28;19924;-66
2023/12/01 07:12:40;;;;;;;;;;;-3.90;99.90;;;;;;4953803;28;20970;-67
2023/12/01 07:15:11;;;;;;;;;;;-4.00;99.90;;;;;;4983609;28;19929;-68
2023/12/01 07:17:38;;;;;;;;;;;-4.00;99.90;;;;;;4960622;28;19952;-67
2023/12/01 07:20:13;;;;;;;;;;;-4.00;99.90;;;;;;4994727;28;19936;-67
2023/12/01 07:22:40;;;;;;;;;;;-4.00;99.90;;;;;;4972828;28;19971;-67
2023/12/01 07:25:10;;;;;;;;;;;-4.00;99.90;;;;;;4980451;28;19925;-67
2023/12/01 07:27:40;;;;;;;;;;;-4.00;99.90;;;;;;4974538;28;19931;-67
2023/12/01 07:30:06;;;;;;;;;;;-3.90;99.90;;;;;;4981514;28;19925;-67
2023/12/01 07:32:32;;;;;;;;;;;-3.90;99.90;;;;;;4953169;28;19924;-67
2023/12/01 07:34:58;;;;;;;;;;;-3.90;99.90;;;;;;4980819;28;20399;-67
2023/12/01 07:37:24;;;;;;;;;;;-3.80;99.90;;;;;;4977324;28;19934;-67
2023/12/01 07:39:50;;;;;;;;;;;-3.80;99.90;;;;;;4980082;28;19925;-67
2023/12/01 07:42:17;;;;;;;;;;;-3.80;99.90;;;;;;4976123;28;20426;-67
2023/12/01 07:44:43;;;;;;;;;;;-3.80;99.90;;;;;;4982587;28;19925;-67
2023/12/01 07:47:11;;;;;;;;;;;-3.80;99.90;;;;;;4969766;28;21202;-66
2023/12/01 07:49:38;;;;;;;;;;;-3.80;99.90;;;;;;4983629;28;20449;-67
2023/12/01 07:52:07;;;;;;;;;;;-3.80;99.90;;;;;;4962823;28;19975;-67
2023/12/01 07:54:33;;;;;;;;;;;-3.80;99.90;;;;;;4989527;28;19932;-67
2023/12/01 07:56:59;;;;;;;;;;;-3.80;99.90;;;;;;4961489;28;19951;-68
2023/12/01 07:59:27;;;;;;;;;;;-3.80;99.90;;;;;;4982998;28;20567;-68
2023/12/01 08:01:53;;;;;;;;;;;-3.70;99.90;;;;;;4959499;28;19929;-68
2023/12/01 08:04:19;;;;;;;;;;;-3.70;99.90;;;;;;4977987;28;20441;-68
2023/12/01 08:06:45;;;;;;;;;;;-3.70;99.90;;;;;;4961509;28;19928;-68
2023/12/01 08:09:16;;;;;;;;;;;-3.70;99.90;;;;;;4980105;28;19977;-67
2023/12/01 08:11:43;;;;;;;;;;;-3.70;99.90;;;;;;4958443;28;19996;-67
2023/12/01 08:14:10;;;;;;;;;;;-3.60;99.90;;;;;;4988753;28;19932;-68
2023/12/01 08:16:36;;;;;;;;;;;-3.60;99.90;;;;;;4966592;28;19924;-66
2023/12/01 08:19:03;;;;;;;;;;;-3.60;99.90;;;;;;4983530;28;20897;-68
2023/12/01 08:21:31;;;;;;;;;;;-3.60;99.90;;;;;;4952105;28;20987;-67
2023/12/01 08:23:57;;;;;;;;;;;-3.50;99.90;;;;;;4988879;28;19929;-67
2023/12/01 08:26:23;;;;;;;;;;;-3.50;99.90;;;;;;4956052;28;19924;-67
2023/12/01 08:28:49;;;;;;;;;;;-3.40;99.90;;;;;;4979494;28;19925;-67
2023/12/01 08:31:16;;;;;;;;;;;-3.40;99.90;;;;;;4955946;28;19939;-67
2023/12/01 08:33:42;;;;;;;;;;;-3.40;99.90;;;;;;4991052;28;19925;-67
2023/12/01 08:36:09;;;;;;;;;;;-3.40;99.90;;;;;;4953224;28;20386;-66
2023/12/01 08:38:35;;;;;;;;;;;-3.30;99.90;;;;;;4977920;28;19940;-66
2023/12/01 08:41:01;;;;;;;;;;;-3.30;99.90;;;;;;4950065;28;20686;-67
2023/12/01 08:43:27;;;;;;;;;;;-3.30;99.90;;;;;;4984979;28;20213;-67
2023/12/01 08:45:53;;;;;;;;;;;-3.30;99.90;;;;;;4949927;28;21052;-68
2023/12/01 08:48:19;;;;;;;;;;;-3.30;99.90;;;;;;4998361;28;19929;-66
2023/12/01 08:50:46;;;;;;;;;;;-3.30;99.90;;;;;;4951374;28;19932;-67
2023/12/01 08:53:12;;;;;;;;;;;-3.20;99.90;;;;;;4999030;28;19940;-67
2023/12/01 08:55:38;;;;;;;;;;;-3.20;99.90;;;;;;4967229;28;19929;-65
2023/12/01 08:58:04;;;;;;;;;;;-3.20;99.90;;;;;;4973561;28;19929;-66
2023/12/01 09:00:30;;;;;;;;;;;-3.10;99.90;;;;;;4980772;28;20899;-66
2023/12/01 09:02:57;;;;;;;;;;;-3.10;99.90;;;;;;4963587;28;19931;-66
2023/12/01 09:05:24;;;;;;;;;;;-3.00;99.90;;;;;;4958677;28;19925;-67
2023/12/01 09:07:50;;;;;;;;;;;-2.80;99.90;;;;;;4960618;28;20617;-66
2023/12/01 09:10:16;;;;;;;;;;;-2.80;99.90;;;;;;4979846;28;21016;-67
2023/12/01 09:12:43;;;;;;;;;;;-2.70;99.90;;;;;;4970462;28;19931;-67
2023/12/01 09:15:10;;;;;;;;;;;-2.60;99.90;;;;;;4979568;28;20884;-66
2023/12/01 09:17:36;;;;;;;;;;;-2.60;99.90;;;;;;4969319;28;19932;-66
2023/12/01 09:20:02;;;;;;;;;;;-2.50;99.90;;;;;;4979340;28;20140;-66
2023/12/01 09:22:28;;;;;;;;;;;-2.60;99.90;;;;;;4959492;28;19924;-66
2023/12/01 09:24:54;;;;;;;;;;;-2.60;99.90;;;;;;4985589;28;20431;-66
2023/12/01 09:27:21;;;;;;;;;;;-2.60;99.90;;;;;;4967267;28;19929;-66
2023/12/01 09:29:47;;;;;;;;;;;-2.60;99.90;;;;;;4981189;28;20889;-66
2023/12/01 09:32:13;;;;;;;;;;;-2.60;99.90;;;;;;4969347;28;19936;-66
2023/12/01 09:34:39;;;;;;;;;;;-2.40;99.90;;;;;;4989230;28;19924;-66
2023/12/01 09:37:05;;;;;;;;;;;-2.30;99.90;;;;;;4970263;28;19928;-66
2023/12/01 09:39:31;;;;;;;;;;;-2.20;99.90;;;;;;4987963;28;20658;-66
2023/12/01 09:41:57;;;;;;;;;;;-2.10;99.90;;;;;;4969342;28;19935;-66
2023/12/01 09:44:23;;;;;;;;;;;-2.00;99.90;;;;;;4990345;28;19936;-66
2023/12/01 09:46:52;;;;;;;;;;;-1.90;99.90;;;;;;4962614;28;20252;-66
2023/12/01 09:49:18;;;;;;;;;;;-1.90;99.90;;;;;;4987213;28;20429;-66
2023/12/01 09:51:44;;;;;;;;;;;-1.80;99.90;;;;;;4963481;28;19932;-68
2023/12/01 09:54:10;;;;;;;;;;;-1.80;99.90;;;;;;4994320;28;20743;-65
2023/12/01 09:56:36;;;;;;;;;;;-1.80;99.90;;;;;;4955204;28;19924;-66
2023/12/01 09:59:02;;;;;;;;;;;-1.80;99.90;;;;;;4989161;28;19929;-66
2023/12/01 10:01:28;;;;;;;;;;;-1.80;99.90;;;;;;4959981;28;19932;-67
2023/12/01 10:03:54;;;;;;;;;;;-1.80;99.90;;;;;;4975324;28;20576;-66
2023/12/01 10:06:21;;;;;;;;;;;-1.80;99.90;;;;;;4957718;28;19931;-66
2023/12/01 10:08:49;;;;;;;;;;;-1.70;99.90;;;;;;4989157;28;20677;-67
2023/12/01 10:11:20;;;;;;;;;;;-1.70;99.90;;;;;;4960698;28;19932;-67
2023/12/01 10:13:48;;;;;;;;;;;-1.70;99.90;;;;;;5001103;28;20436;-65
2023/12/01 10:16:14;;;;;;;;;;;-1.70;99.90;;;;;;4956202;28;21249;-65
2023/12/01 10:18:55;;;;;;;;;;;-1.70;99.90;;;;;;4988327;28;21003;-66
2023/12/01 10:21:20;;;;;;;;;;;-1.60;99.90;;;;;;4958453;28;19924;-66
2023/12/01 10:23:46;;;;;;;;;;;-1.60;99.90;;;;;;4980530;28;19929;-67
2023/12/01 10:26:13;;;;;;;;;;;-1.50;99.90;;;;;;4957407;28;20382;-66
2023/12/01 10:28:40;;;;;;;;;;;-1.40;99.90;;;;;;4996724;28;19932;-65
2023/12/01 10:31:06;;;;;;;;;;;-1.40;99.90;;;;;;4952867;28;19925;-66
2023/12/01 10:33:33;;;;;;;;;;;-1.30;99.90;;;;;;4996869;28;19932;-66
2023/12/01 10:36:01;;;;;;;;;;;-1.20;99.90;;;;;;4953570;28;19937;-65
2023/12/01 10:38:27;;;;;;;;;;;-1.20;99.90;;;;;;4982859;28;19936;-65
2023/12/01 10:40:56;;;;;;;;;;;-1.20;99.90;;;;;;4950451;28;19929;-66
2023/12/01 10:43:22;;;;;;;;;;;-1.20;99.90;;;;;;4995098;28;19925;-66
2023/12/01 10:45:49;;;;;;;;;;;-1.10;99.90;;;;;;4952236;28;19929;-65
2023/12/01 10:48:19;;;;;;;;;;;-1.00;99.90;;;;;;4982898;28;20434;-66
2023/12/01 10:50:48;;;;;;;;;;;-0.80;99.90;;;;;;4950214;28;19925;-66
2023/12/01 10:53:15;;;;;;;;;;;-0.60;99.90;;;;;;5001470;28;19929;-66
2023/12/01 10:55:50;;;;;;;;;;;-0.60;99.90;;;;;;4963547;28;19925;-67
2023/12/01 10:58:23;;;;;;;;;;;-0.50;99.90;;;;;;4966121;28;19929;-64
2023/12/01 11:00:49;;;;;;;;;;;-0.40;99.90;;;;;;4931363;28;19932;-67
2023/12/01 11:03:18;;;;;;;;;;;-0.40;99.90;;;;;;4966251;28;20012;-67
2023/12/01 11:05:44;;;;;;;;;;;-0.40;99.90;;;;;;4931593;28;19926;-66
2023/12/01 11:08:10;;;;;;;;;;;-0.30;99.90;;;;;;4959158;28;19932;-66
2023/12/01 11:10:36;;;;;;;;;;;-0.30;99.90;;;;;;4959025;28;19976;-67
2023/12/01 11:13:15;;;;;;;;;;;-0.30;99.90;;;;;;4953030;28;19925;-68
2023/12/01 11:15:43;;;;;;;;;;;-0.20;99.90;;;;;;4941430;28;19952;-67
2023/12/01 11:18:10;;;;;;;;;;;-0.20;99.90;;;;;;4978947;28;19956;-67
2023/12/01 11:20:36;;;;;;;;;;;-0.20;99.90;;;;;;4988907;28;19932;-67
2023/12/01 11:23:22;;;;;;;;;;;-0.10;99.90;;;;;;4970223;28;21360;-66
2023/12/01 11:25:53;;;;;;;;;;;-0.10;99.90;;;;;;4957182;28;19955;-67
2023/12/01 11:28:22;;;;;;;;;;;0.00;99.90;;;;;;4974276;28;19925;-68
2023/12/01 11:31:01;;;;;;;;;;;0.00;99.90;;;;;;4930936;28;20207;-66
2023/12/01 11:33:32;;;;;;;;;;;0.00;99.90;;;;;;4982441;28;19998;-67
2023/12/01 11:36:16;;;;;;;;;;;-0.10;99.90;;;;;;4938764;28;21376;-67
2023/12/01 11:39:08;;;;;;;;;;;-0.10;99.90;;;;;;5007395;28;19929;-67
2023/12/01 11:41:34;;;;;;;;;;;0.00;99.90;;;;;;4955805;28;21007;-67
2023/12/01 11:44:07;;;;;;;;;;;-0.10;99.90;;;;;;4958581;28;19937;-70
2023/12/01 11:46:33;;;;;;;;;;;0.10;99.90;;;;;;4938741;28;19932;-68
2023/12/01 11:48:59;;;;;;;;;;;0.10;99.90;;;;;;4972676;28;19929;-68
2023/12/01 11:51:26;;;;;;;;;;;0.10;99.90;;;;;;4939289;28;19929;-67
2023/12/01 11:53:56;;;;;;;;;;;0.20;99.90;;;;;;4970943;28;19932;-68
2023/12/01 11:56:26;;;;;;;;;;;0.20;99.90;;;;;;4937275;28;20634;-68
2023/12/01 11:58:52;;;;;;;;;;;0.30;99.90;;;;;;4959921;28;20830;-69
2023/12/01 12:01:18;;;;;;;;;;;0.40;99.90;;;;;;4937975;28;19929;-69
2023/12/01 12:03:53;;;;;;;;;;;0.50;99.90;;;;;;4962064;28;19990;-68
2023/12/01 12:06:19;;;;;;;;;;;0.50;99.90;;;;;;4936064;28;20652;-68
2023/12/01 12:08:47;;;;;;;;;;;0.50;99.90;;;;;;4972779;28;19932;-67
2023/12/01 12:11:13;;;;;;;;;;;0.50;99.90;;;;;;4934532;28;20949;-69
2023/12/01 12:13:38;;;;;;;;;;;0.50;99.90;;;;;;4975781;28;19961;-68
2023/12/01 12:16:05;;;;;;;;;;;0.50;99.90;;;;;;4933774;28;20391;-69
2023/12/01 12:18:30;;;;;;;;;;;0.60;99.90;;;;;;4974890;28;19940;-68
2023/12/01 12:21:00;;;;;;;;;;;0.40;99.90;;;;;;4932085;28;19933;-69
2023/12/01 12:23:26;;;;;;;;;;;0.40;99.90;;;;;;4997091;28;19925;-69
2023/12/01 12:25:52;;;;;;;;;;;0.40;99.90;;;;;;4963067;28;20440;-68
2023/12/01 12:28:19;;;;;;;;;;;0.80;99.90;;;;;;4993767;28;20099;-70
2023/12/01 12:30:47;;;;;;;;;;;0.80;99.90;;;;;;4958853;28;19925;-69
2023/12/01 12:33:13;;;;;;;;;;;0.80;99.90;;;;;;5003026;28;19936;-70
2023/12/01 12:35:39;;;;;;;;;;;0.70;99.90;;;;;;4975263;28;19925;-69
2023/12/01 12:38:06;;;;;;;;;;;0.60;99.90;;;;;;4974749;28;21451;-69
2023/12/01 12:40:34;;;;;;;;;;;0.50;99.90;;;;;;4978667;28;19925;-70
2023/12/01 12:43:02;;;;;;;;;;;0.40;99.90;;;;;;4941544;28;20900;-69
2023/12/01 12:45:29;;;;;;;;;;;0.30;99.90;;;;;;4981013;28;19925;-70
2023/12/01 12:48:02;;;;;;;;;;;0.30;99.90;;;;;;4957333;28;20430;-70
2023/12/01 12:50:29;;;;;;;;;;;0.30;99.90;;;;;;4982409;28;20483;-70
2023/12/01 12:52:55;;;;;;;;;;;0.30;99.90;;;;;;4958672;28;19925;-69
2023/12/01 12:55:25;;;;;;;;;;;0.40;99.90;;;;;;4981793;28;19951;-69
2023/12/01 12:57:51;;;;;;;;;;;0.50;99.90;;;;;;4970147;28;19925;-68
2023/12/01 13:00:17;;;;;;;;;;;0.60;99.90;;;;;;4979413;28;19929;-69
2023/12/01 13:02:43;;;;;;;;;;;0.60;99.90;;;;;;4967410;28;19970;-69
2023/12/01 13:05:09;;;;;;;;;;;0.40;99.90;;;;;;4959358;28;19929;-69
2023/12/01 13:07:35;;;;;;;;;;;0.30;99.90;;;;;;4965052;28;19928;-69
2023/12/01 13:10:01;;;;;;;;;;;0.30;99.90;;;;;;4976561;28;19929;-72
2023/12/01 13:12:27;;;;;;;;;;;0.30;99.90;;;;;;4962770;28;19935;-70
2023/12/01 13:14:53;;;;;;;;;;;0.30;99.90;;;;;;4976979;28;19929;-70
2023/12/01 13:17:19;;;;;;;;;;;0.30;99.90;;;;;;4966305;28;19925;-69
2023/12/01 13:19:44;;;;;;;;;;;0.40;99.90;;;;;;4976239;28;19932;-70
2023/12/01 13:22:10;;;;;;;;;;;0.50;99.90;;;;;;4962549;28;19929;-71
2023/12/01 13:24:36;;;;;;;;;;;0.50;99.90;;;;;;4985997;28;19929;-69
2023/12/01 13:27:02;;;;;;;;;;;0.60;99.90;;;;;;4967181;28;19970;-68
2023/12/01 13:29:28;;;;;;;;;;;0.70;99.90;;;;;;4986530;28;19936;-69
2023/12/01 13:31:54;;;;;;;;;;;0.80;99.90;;;;;;4950031;28;20493;-69
2023/12/01 13:34:20;;;;;;;;;;;1.00;99.90;;;;;;4978825;28;19936;-70
2023/12/01 13:36:48;;;;;;;;;;;1.70;99.90;;;;;;4954291;28;19940;-69
2023/12/01 13:39:17;;;;;;;;;;;1.90;99.90;;;;;;4977499;28;19956;-70
2023/12/01 13:41:43;;;;;;;;;;;1.50;99.90;;;;;;4946490;28;19928;-69
2023/12/01 13:44:10;;;;;;;;;;;1.30;99.90;;;;;;4959118;28;20591;-69
2023/12/01 13:46:36;;;;;;;;;;;0.90;99.90;;;;;;4952731;28;20517;-69
2023/12/01 13:49:02;;;;;;;;;;;0.60;99.90;;;;;;4987515;28;19932;-69
2023/12/01 13:51:28;;;;;;;;;;;0.50;99.90;;;;;;4946461;28;19924;-70
2023/12/01 13:53:54;;;;;;;;;;;0.40;99.90;;;;;;4986660;28;20942;-69
2023/12/01 13:56:20;;;;;;;;;;;0.30;99.90;;;;;;4956766;28;20039;-70
2023/12/01 13:58:46;;;;;;;;;;;0.20;99.90;;;;;;4988875;28;21785;-69
2023/12/01 14:01:14;;;;;;;;;;;0.20;99.90;;;;;;4948552;28;19932;-71
2023/12/01 14:03:40;;;;;;;;;;;0.20;99.90;;;;;;4988398;28;19925;-71
2023/12/01 14:06:06;;;;;;;;;;;0.20;99.90;;;;;;4953754;28;19931;-68
2023/12/01 14:08:32;;;;;;;;;;;0.20;99.90;;;;;;4995206;28;19944;-69
2023/12/01 14:10:58;;;;;;;;;;;0.10;99.90;;;;;;4952298;28;20067;-69
2023/12/01 14:13:23;;;;;;;;;;;0.10;99.90;;;;;;4995954;28;19932;-70
2023/12/01 14:15:49;;;;;;;;;;;0.10;99.90;;;;;;4945711;28;19940;-69
2023/12/01 14:18:15;;;;;;;;;;;0.10;99.90;;;;;;4981688;28;19929;-69
2023/12/01 14:20:41;;;;;;;;;;;0.00;99.90;;;;;;4958699;28;19929;-68